sensor_id;sensor_type;location;lat;lon;timestamp;P1;durP1;ratioP1;P2;durP2;ratioP2
4971;SDS011;2501;51.214;6.768;2022-07-22T00:01:19;15.20;;;7.38;;
4971;SDS011;2501;51.214;6.768;2022-07-22T00:03:47;12.90;;;7.68;;
4971;SDS011;2501;51.214;6.768;2022-07-22T00:06:16;18.58;;;8.18;;
4971;SDS011;2501;51.214;6.768;2022-07-22T00:08:47;13.60;;;7.03;;
4971;SDS011;2501;51.214;6.768;2022-07-22T00:11:15;11.60;;;6.20;;
4971;SDS011;2501;51.214;6.768;2022-07-22T00:13:44;13.30;;;7.70;;
4971;SDS011;2501;51.214;6.768;2022-07-22T00:16:13;8.18;;;5.90;;
4971;SDS011;2501;51.214;6.768;2022-07-22T00:18:41;10.60;;;6.88;;
4971;SDS011;2501;51.214;6.768;2022-07-22T00:21:10;10.80;;;6.80;;
4971;SDS011;2501;51.214;6.768;2022-07-22T00:23:38;10.20;;;6.40;;
4971;SDS011;2501;51.214;6.768;2022-07-22T00:26:10;8.73;;;6.50;;
4971;SDS011;2501;51.214;6.768;2022-07-22T00:28:38;14.55;;;6.75;;
4971;SDS011;2501;51.214;6.768;2022-07-22T00:31:07;23.95;;;8.25;;
4971;SDS011;2501;51.214;6.768;2022-07-22T00:33:35;12.55;;;7.88;;
4971;SDS011;2501;51.214;6.768;2022-07-22T00:36:04;11.45;;;7.75;;
4971;SDS011;2501;51.214;6.768;2022-07-22T00:38:34;14.60;;;7.68;;
4971;SDS011;2501;51.214;6.768;2022-07-22T00:41:03;13.20;;;8.43;;
4971;SDS011;2501;51.214;6.768;2022-07-22T00:46:21;13.98;;;8.73;;
4971;SDS011;2501;51.214;6.768;2022-07-22T00:48:51;25.30;;;8.20;;
4971;SDS011;2501;51.214;6.768;2022-07-22T00:51:21;16.80;;;8.40;;
4971;SDS011;2501;51.214;6.768;2022-07-22T00:53:50;14.35;;;9.10;;
4971;SDS011;2501;51.214;6.768;2022-07-22T00:56:19;12.37;;;8.80;;
4971;SDS011;2501;51.214;6.768;2022-07-22T00:58:49;22.53;;;10.03;;
4971;SDS011;2501;51.214;6.768;2022-07-22T01:01:21;15.37;;;9.57;;
4971;SDS011;2501;51.214;6.768;2022-07-22T01:03:50;12.70;;;8.98;;
4971;SDS011;2501;51.214;6.768;2022-07-22T01:06:19;18.67;;;9.35;;
4971;SDS011;2501;51.214;6.768;2022-07-22T01:08:48;15.07;;;9.07;;
4971;SDS011;2501;51.214;6.768;2022-07-22T01:11:17;18.15;;;8.90;;
4971;SDS011;2501;51.214;6.768;2022-07-22T01:13:47;16.50;;;9.52;;
4971;SDS011;2501;51.214;6.768;2022-07-22T01:16:19;13.23;;;8.68;;
4971;SDS011;2501;51.214;6.768;2022-07-22T01:18:48;20.30;;;9.70;;
4971;SDS011;2501;51.214;6.768;2022-07-22T01:21:19;15.82;;;9.30;;
4971;SDS011;2501;51.214;6.768;2022-07-22T01:23:47;20.48;;;10.27;;
4971;SDS011;2501;51.214;6.768;2022-07-22T01:26:16;13.63;;;10.02;;
4971;SDS011;2501;51.214;6.768;2022-07-22T01:28:45;20.65;;;10.30;;
4971;SDS011;2501;51.214;6.768;2022-07-22T01:31:13;17.40;;;10.03;;
4971;SDS011;2501;51.214;6.768;2022-07-22T01:33:42;23.47;;;9.80;;
4971;SDS011;2501;51.214;6.768;2022-07-22T01:36:10;17.43;;;9.47;;
4971;SDS011;2501;51.214;6.768;2022-07-22T01:38:41;13.68;;;9.77;;
4971;SDS011;2501;51.214;6.768;2022-07-22T01:41:10;25.45;;;11.02;;
4971;SDS011;2501;51.214;6.768;2022-07-22T01:43:39;17.70;;;9.80;;
4971;SDS011;2501;51.214;6.768;2022-07-22T01:46:07;17.63;;;9.70;;
4971;SDS011;2501;51.214;6.768;2022-07-22T01:48:36;19.00;;;9.88;;
4971;SDS011;2501;51.214;6.768;2022-07-22T01:51:05;16.57;;;9.40;;
4971;SDS011;2501;51.214;6.768;2022-07-22T01:53:34;17.27;;;9.25;;
4971;SDS011;2501;51.214;6.768;2022-07-22T01:56:05;14.05;;;9.75;;
4971;SDS011;2501;51.214;6.768;2022-07-22T01:58:34;13.30;;;9.47;;
4971;SDS011;2501;51.214;6.768;2022-07-22T02:01:02;21.33;;;9.60;;
4971;SDS011;2501;51.214;6.768;2022-07-22T02:03:31;15.18;;;9.95;;
4971;SDS011;2501;51.214;6.768;2022-07-22T02:06:00;15.38;;;10.02;;
4971;SDS011;2501;51.214;6.768;2022-07-22T02:08:28;13.10;;;9.10;;
4971;SDS011;2501;51.214;6.768;2022-07-22T02:10:57;18.23;;;9.30;;
4971;SDS011;2501;51.214;6.768;2022-07-22T02:13:28;18.08;;;9.68;;
4971;SDS011;2501;51.214;6.768;2022-07-22T02:15:56;16.38;;;8.93;;
4971;SDS011;2501;51.214;6.768;2022-07-22T02:18:25;15.93;;;8.63;;
4971;SDS011;2501;51.214;6.768;2022-07-22T02:20:53;15.82;;;9.20;;
4971;SDS011;2501;51.214;6.768;2022-07-22T02:23:22;15.15;;;9.90;;
4971;SDS011;2501;51.214;6.768;2022-07-22T02:25:50;20.83;;;9.40;;
4971;SDS011;2501;51.214;6.768;2022-07-22T02:28:19;18.50;;;9.87;;
4971;SDS011;2501;51.214;6.768;2022-07-22T02:30:50;12.40;;;9.40;;
4971;SDS011;2501;51.214;6.768;2022-07-22T02:33:19;17.30;;;10.05;;
4971;SDS011;2501;51.214;6.768;2022-07-22T02:35:47;17.17;;;9.33;;
4971;SDS011;2501;51.214;6.768;2022-07-22T02:38:16;15.80;;;9.13;;
4971;SDS011;2501;51.214;6.768;2022-07-22T02:40:44;16.30;;;8.50;;
4971;SDS011;2501;51.214;6.768;2022-07-22T02:43:12;12.97;;;8.13;;
4971;SDS011;2501;51.214;6.768;2022-07-22T02:45:41;9.70;;;7.22;;
4971;SDS011;2501;51.214;6.768;2022-07-22T02:48:13;14.98;;;6.95;;
4971;SDS011;2501;51.214;6.768;2022-07-22T02:50:44;14.65;;;8.40;;
4971;SDS011;2501;51.214;6.768;2022-07-22T02:53:13;13.82;;;8.23;;
4971;SDS011;2501;51.214;6.768;2022-07-22T02:55:42;15.33;;;8.00;;
4971;SDS011;2501;51.214;6.768;2022-07-22T02:58:10;13.45;;;7.50;;
4971;SDS011;2501;51.214;6.768;2022-07-22T03:00:39;18.42;;;8.40;;
4971;SDS011;2501;51.214;6.768;2022-07-22T03:03:07;10.60;;;7.88;;
4971;SDS011;2501;51.214;6.768;2022-07-22T03:05:38;12.52;;;8.57;;
4971;SDS011;2501;51.214;6.768;2022-07-22T03:08:07;12.35;;;7.57;;
4971;SDS011;2501;51.214;6.768;2022-07-22T03:10:36;12.63;;;7.90;;
4971;SDS011;2501;51.214;6.768;2022-07-22T03:13:05;17.73;;;7.13;;
4971;SDS011;2501;51.214;6.768;2022-07-22T03:15:33;14.43;;;7.13;;
4971;SDS011;2501;51.214;6.768;2022-07-22T03:18:02;14.82;;;7.95;;
4971;SDS011;2501;51.214;6.768;2022-07-22T03:20:31;14.57;;;7.50;;
4971;SDS011;2501;51.214;6.768;2022-07-22T03:23:02;16.83;;;7.37;;
4971;SDS011;2501;51.214;6.768;2022-07-22T03:25:30;15.77;;;7.32;;
4971;SDS011;2501;51.214;6.768;2022-07-22T03:27:59;13.30;;;7.07;;
4971;SDS011;2501;51.214;6.768;2022-07-22T03:30:27;12.02;;;6.50;;
4971;SDS011;2501;51.214;6.768;2022-07-22T03:32:56;11.48;;;6.80;;
4971;SDS011;2501;51.214;6.768;2022-07-22T03:35:25;13.90;;;7.20;;
4971;SDS011;2501;51.214;6.768;2022-07-22T03:37:53;8.68;;;6.28;;
4971;SDS011;2501;51.214;6.768;2022-07-22T03:40:25;14.20;;;7.50;;
4971;SDS011;2501;51.214;6.768;2022-07-22T03:42:53;14.38;;;7.20;;
4971;SDS011;2501;51.214;6.768;2022-07-22T03:45:21;12.77;;;7.18;;
4971;SDS011;2501;51.214;6.768;2022-07-22T03:47:50;17.10;;;7.30;;
4971;SDS011;2501;51.214;6.768;2022-07-22T03:50:19;17.38;;;6.70;;
4971;SDS011;2501;51.214;6.768;2022-07-22T03:52:48;11.25;;;7.20;;
4971;SDS011;2501;51.214;6.768;2022-07-22T03:55:16;9.63;;;6.70;;
4971;SDS011;2501;51.214;6.768;2022-07-22T03:57:48;15.65;;;7.40;;
4971;SDS011;2501;51.214;6.768;2022-07-22T04:00:16;12.73;;;6.80;;
4971;SDS011;2501;51.214;6.768;2022-07-22T04:02:45;16.15;;;6.88;;
4971;SDS011;2501;51.214;6.768;2022-07-22T04:05:14;13.13;;;6.30;;
4971;SDS011;2501;51.214;6.768;2022-07-22T04:07:42;12.48;;;7.05;;
4971;SDS011;2501;51.214;6.768;2022-07-22T04:10:11;16.10;;;6.93;;
4971;SDS011;2501;51.214;6.768;2022-07-22T04:12:40;10.20;;;6.80;;
4971;SDS011;2501;51.214;6.768;2022-07-22T04:15:11;17.58;;;7.20;;
4971;SDS011;2501;51.214;6.768;2022-07-22T04:17:40;12.82;;;7.18;;
4971;SDS011;2501;51.214;6.768;2022-07-22T04:20:09;13.68;;;7.65;;
4971;SDS011;2501;51.214;6.768;2022-07-22T04:22:38;16.02;;;8.90;;
4971;SDS011;2501;51.214;6.768;2022-07-22T04:25:07;16.48;;;7.93;;
4971;SDS011;2501;51.214;6.768;2022-07-22T04:27:36;15.07;;;8.80;;
4971;SDS011;2501;51.214;6.768;2022-07-22T04:30:05;14.02;;;8.20;;
4971;SDS011;2501;51.214;6.768;2022-07-22T04:32:37;18.70;;;9.50;;
4971;SDS011;2501;51.214;6.768;2022-07-22T04:35:06;16.70;;;9.90;;
4971;SDS011;2501;51.214;6.768;2022-07-22T04:37:35;31.33;;;11.70;;
4971;SDS011;2501;51.214;6.768;2022-07-22T04:40:04;20.40;;;10.90;;
4971;SDS011;2501;51.214;6.768;2022-07-22T04:42:33;14.95;;;9.38;;
4971;SDS011;2501;51.214;6.768;2022-07-22T04:45:02;19.23;;;9.20;;
4971;SDS011;2501;51.214;6.768;2022-07-22T04:47:31;15.48;;;8.57;;
4971;SDS011;2501;51.214;6.768;2022-07-22T04:50:02;15.32;;;8.68;;
4971;SDS011;2501;51.214;6.768;2022-07-22T04:52:31;18.02;;;9.15;;
4971;SDS011;2501;51.214;6.768;2022-07-22T04:54:59;17.35;;;8.85;;
4971;SDS011;2501;51.214;6.768;2022-07-22T04:57:28;19.23;;;10.45;;
4971;SDS011;2501;51.214;6.768;2022-07-22T04:59:56;16.35;;;9.95;;
4971;SDS011;2501;51.214;6.768;2022-07-22T05:02:25;15.63;;;8.85;;
4971;SDS011;2501;51.214;6.768;2022-07-22T05:04:58;16.95;;;8.50;;
4971;SDS011;2501;51.214;6.768;2022-07-22T05:07:29;18.50;;;8.63;;
4971;SDS011;2501;51.214;6.768;2022-07-22T05:09:57;21.55;;;10.05;;
4971;SDS011;2501;51.214;6.768;2022-07-22T05:12:26;17.25;;;10.73;;
4971;SDS011;2501;51.214;6.768;2022-07-22T05:14:54;16.75;;;10.23;;
4971;SDS011;2501;51.214;6.768;2022-07-22T05:17:23;21.23;;;9.85;;
4971;SDS011;2501;51.214;6.768;2022-07-22T05:19:51;17.45;;;9.88;;
4971;SDS011;2501;51.214;6.768;2022-07-22T05:22:19;20.88;;;8.80;;
4971;SDS011;2501;51.214;6.768;2022-07-22T05:24:51;16.10;;;7.20;;
4971;SDS011;2501;51.214;6.768;2022-07-22T05:27:19;15.80;;;8.38;;
4971;SDS011;2501;51.214;6.768;2022-07-22T05:29:48;13.85;;;8.25;;
4971;SDS011;2501;51.214;6.768;2022-07-22T05:32:16;8.35;;;5.95;;
4971;SDS011;2501;51.214;6.768;2022-07-22T05:34:44;12.00;;;5.30;;
4971;SDS011;2501;51.214;6.768;2022-07-22T05:37:13;16.13;;;5.15;;
4971;SDS011;2501;51.214;6.768;2022-07-22T05:39:42;9.97;;;5.80;;
4971;SDS011;2501;51.214;6.768;2022-07-22T05:42:13;10.65;;;4.97;;
4971;SDS011;2501;51.214;6.768;2022-07-22T05:44:41;12.20;;;5.57;;
4971;SDS011;2501;51.214;6.768;2022-07-22T05:47:10;14.52;;;4.65;;
4971;SDS011;2501;51.214;6.768;2022-07-22T05:49:38;6.35;;;4.65;;
4971;SDS011;2501;51.214;6.768;2022-07-22T05:52:07;10.10;;;3.80;;
4971;SDS011;2501;51.214;6.768;2022-07-22T05:54:36;5.25;;;3.25;;
4971;SDS011;2501;51.214;6.768;2022-07-22T05:57:05;12.85;;;4.30;;
4971;SDS011;2501;51.214;6.768;2022-07-22T05:59:37;12.75;;;3.55;;
4971;SDS011;2501;51.214;6.768;2022-07-22T06:02:06;14.88;;;4.13;;
4971;SDS011;2501;51.214;6.768;2022-07-22T06:04:35;11.75;;;3.72;;
4971;SDS011;2501;51.214;6.768;2022-07-22T06:07:04;7.25;;;3.30;;
4971;SDS011;2501;51.214;6.768;2022-07-22T06:09:33;8.85;;;3.40;;
4971;SDS011;2501;51.214;6.768;2022-07-22T06:12:02;12.52;;;3.35;;
4971;SDS011;2501;51.214;6.768;2022-07-22T06:14:31;4.20;;;3.30;;
4971;SDS011;2501;51.214;6.768;2022-07-22T06:17:04;5.43;;;3.33;;
4971;SDS011;2501;51.214;6.768;2022-07-22T06:19:34;6.63;;;3.15;;
4971;SDS011;2501;51.214;6.768;2022-07-22T06:22:02;4.90;;;2.70;;
4971;SDS011;2501;51.214;6.768;2022-07-22T06:24:31;5.68;;;3.10;;
4971;SDS011;2501;51.214;6.768;2022-07-22T06:26:59;6.30;;;3.53;;
4971;SDS011;2501;51.214;6.768;2022-07-22T06:29:28;6.70;;;3.50;;
4971;SDS011;2501;51.214;6.768;2022-07-22T06:31:57;9.80;;;3.50;;
4971;SDS011;2501;51.214;6.768;2022-07-22T06:34:32;11.57;;;4.38;;
4971;SDS011;2501;51.214;6.768;2022-07-22T06:37:04;11.20;;;3.10;;
4971;SDS011;2501;51.214;6.768;2022-07-22T06:39:35;11.90;;;3.55;;
4971;SDS011;2501;51.214;6.768;2022-07-22T06:42:04;6.75;;;2.72;;
4971;SDS011;2501;51.214;6.768;2022-07-22T06:44:33;6.90;;;3.50;;
4971;SDS011;2501;51.214;6.768;2022-07-22T06:47:02;4.65;;;3.13;;
4971;SDS011;2501;51.214;6.768;2022-07-22T06:49:33;7.15;;;3.53;;
4971;SDS011;2501;51.214;6.768;2022-07-22T06:52:02;7.93;;;4.00;;
4971;SDS011;2501;51.214;6.768;2022-07-22T06:54:31;9.80;;;4.30;;
4971;SDS011;2501;51.214;6.768;2022-07-22T06:56:59;8.73;;;4.10;;
4971;SDS011;2501;51.214;6.768;2022-07-22T06:59:28;6.72;;;3.80;;
4971;SDS011;2501;51.214;6.768;2022-07-22T07:01:56;7.60;;;3.90;;
4971;SDS011;2501;51.214;6.768;2022-07-22T07:04:25;9.60;;;4.35;;
4971;SDS011;2501;51.214;6.768;2022-07-22T07:06:56;6.25;;;3.92;;
4971;SDS011;2501;51.214;6.768;2022-07-22T07:09:24;7.57;;;4.13;;
4971;SDS011;2501;51.214;6.768;2022-07-22T07:11:53;10.05;;;4.50;;
4971;SDS011;2501;51.214;6.768;2022-07-22T07:14:22;6.40;;;3.40;;
4971;SDS011;2501;51.214;6.768;2022-07-22T07:16:51;6.70;;;3.90;;
4971;SDS011;2501;51.214;6.768;2022-07-22T07:19:19;9.02;;;4.03;;
4971;SDS011;2501;51.214;6.768;2022-07-22T07:21:48;9.35;;;4.25;;
4971;SDS011;2501;51.214;6.768;2022-07-22T07:24:19;6.80;;;3.83;;
4971;SDS011;2501;51.214;6.768;2022-07-22T07:26:48;11.48;;;4.40;;
4971;SDS011;2501;51.214;6.768;2022-07-22T07:29:16;11.25;;;5.20;;
4971;SDS011;2501;51.214;6.768;2022-07-22T07:31:45;10.68;;;5.22;;
4971;SDS011;2501;51.214;6.768;2022-07-22T07:34:13;8.23;;;5.38;;
4971;SDS011;2501;51.214;6.768;2022-07-22T07:36:42;9.50;;;6.03;;
4971;SDS011;2501;51.214;6.768;2022-07-22T07:39:10;9.30;;;6.03;;
4971;SDS011;2501;51.214;6.768;2022-07-22T07:41:41;16.35;;;6.90;;
4971;SDS011;2501;51.214;6.768;2022-07-22T07:44:10;12.80;;;7.32;;
4971;SDS011;2501;51.214;6.768;2022-07-22T07:46:39;14.35;;;7.90;;
4971;SDS011;2501;51.214;6.768;2022-07-22T07:49:07;12.77;;;8.52;;
4971;SDS011;2501;51.214;6.768;2022-07-22T07:51:36;19.45;;;9.35;;
4971;SDS011;2501;51.214;6.768;2022-07-22T07:54:04;13.30;;;8.35;;
4971;SDS011;2501;51.214;6.768;2022-07-22T07:56:33;15.63;;;8.70;;
4971;SDS011;2501;51.214;6.768;2022-07-22T07:59:04;16.20;;;8.10;;
4971;SDS011;2501;51.214;6.768;2022-07-22T08:01:32;17.75;;;8.73;;
4971;SDS011;2501;51.214;6.768;2022-07-22T08:04:01;19.08;;;9.65;;
4971;SDS011;2501;51.214;6.768;2022-07-22T08:06:30;18.67;;;8.73;;
4971;SDS011;2501;51.214;6.768;2022-07-22T08:08:58;20.90;;;10.93;;
4971;SDS011;2501;51.214;6.768;2022-07-22T08:11:27;20.58;;;9.70;;
4971;SDS011;2501;51.214;6.768;2022-07-22T08:13:56;20.85;;;10.00;;
4971;SDS011;2501;51.214;6.768;2022-07-22T08:16:27;19.15;;;9.05;;
4971;SDS011;2501;51.214;6.768;2022-07-22T08:18:55;18.23;;;9.20;;
4971;SDS011;2501;51.214;6.768;2022-07-22T08:21:24;19.08;;;9.30;;
4971;SDS011;2501;51.214;6.768;2022-07-22T08:23:52;21.20;;;10.82;;
4971;SDS011;2501;51.214;6.768;2022-07-22T08:26:21;20.35;;;8.43;;
4971;SDS011;2501;51.214;6.768;2022-07-22T08:28:49;21.80;;;10.80;;
4971;SDS011;2501;51.214;6.768;2022-07-22T08:31:18;22.33;;;8.90;;
4971;SDS011;2501;51.214;6.768;2022-07-22T08:33:49;25.77;;;9.05;;
4971;SDS011;2501;51.214;6.768;2022-07-22T08:36:18;25.45;;;8.85;;
4971;SDS011;2501;51.214;6.768;2022-07-22T08:38:49;29.88;;;9.90;;
4971;SDS011;2501;51.214;6.768;2022-07-22T08:41:19;148.77;;;16.90;;
4971;SDS011;2501;51.214;6.768;2022-07-22T08:43:51;27.23;;;8.73;;
4971;SDS011;2501;51.214;6.768;2022-07-22T08:46:20;21.07;;;8.60;;
4971;SDS011;2501;51.214;6.768;2022-07-22T08:48:51;20.70;;;9.70;;
4971;SDS011;2501;51.214;6.768;2022-07-22T08:51:20;16.93;;;8.83;;
4971;SDS011;2501;51.214;6.768;2022-07-22T08:53:49;34.75;;;10.50;;
4971;SDS011;2501;51.214;6.768;2022-07-22T08:56:18;28.70;;;9.90;;
4971;SDS011;2501;51.214;6.768;2022-07-22T08:58:46;17.20;;;9.40;;
4971;SDS011;2501;51.214;6.768;2022-07-22T09:01:15;24.73;;;10.73;;
4971;SDS011;2501;51.214;6.768;2022-07-22T09:03:45;31.85;;;10.40;;
4971;SDS011;2501;51.214;6.768;2022-07-22T09:06:19;68.33;;;14.53;;
4971;SDS011;2501;51.214;6.768;2022-07-22T09:08:50;36.33;;;11.13;;
4971;SDS011;2501;51.214;6.768;2022-07-22T09:11:23;42.65;;;11.35;;
4971;SDS011;2501;51.214;6.768;2022-07-22T09:13:53;71.20;;;14.95;;
4971;SDS011;2501;51.214;6.768;2022-07-22T09:19:06;81.30;;;16.37;;
4971;SDS011;2501;51.214;6.768;2022-07-22T09:21:39;76.88;;;17.83;;
4971;SDS011;2501;51.214;6.768;2022-07-22T09:24:12;85.03;;;17.53;;
4971;SDS011;2501;51.214;6.768;2022-07-22T09:26:54;116.25;;;19.55;;
4971;SDS011;2501;51.214;6.768;2022-07-22T09:29:23;44.23;;;12.40;;
4971;SDS011;2501;51.214;6.768;2022-07-22T09:31:52;107.22;;;18.30;;
4971;SDS011;2501;51.214;6.768;2022-07-22T09:34:26;42.03;;;12.67;;
4971;SDS011;2501;51.214;6.768;2022-07-22T09:37:00;41.67;;;10.68;;
4971;SDS011;2501;51.214;6.768;2022-07-22T09:39:29;21.65;;;9.80;;
4971;SDS011;2501;51.214;6.768;2022-07-22T09:42:01;41.55;;;12.55;;
4971;SDS011;2501;51.214;6.768;2022-07-22T09:44:32;400.98;;;47.65;;
4971;SDS011;2501;51.214;6.768;2022-07-22T09:47:01;28.08;;;11.68;;
4971;SDS011;2501;51.214;6.768;2022-07-22T09:49:31;45.65;;;12.82;;
4971;SDS011;2501;51.214;6.768;2022-07-22T09:52:05;44.10;;;13.43;;
4971;SDS011;2501;51.214;6.768;2022-07-22T09:54:34;86.97;;;17.48;;
4971;SDS011;2501;51.214;6.768;2022-07-22T09:57:03;179.82;;;24.90;;
4971;SDS011;2501;51.214;6.768;2022-07-22T09:59:31;162.10;;;23.40;;
4971;SDS011;2501;51.214;6.768;2022-07-22T10:02:00;112.05;;;21.75;;
4971;SDS011;2501;51.214;6.768;2022-07-22T10:04:32;38.20;;;12.60;;
4971;SDS011;2501;51.214;6.768;2022-07-22T10:07:01;28.08;;;11.27;;
4971;SDS011;2501;51.214;6.768;2022-07-22T10:09:33;22.42;;;10.75;;
4971;SDS011;2501;51.214;6.768;2022-07-22T10:12:04;31.30;;;13.00;;
4971;SDS011;2501;51.214;6.768;2022-07-22T10:14:34;38.28;;;12.73;;
4971;SDS011;2501;51.214;6.768;2022-07-22T10:17:03;42.55;;;12.20;;
4971;SDS011;2501;51.214;6.768;2022-07-22T10:19:32;30.60;;;11.38;;
4971;SDS011;2501;51.214;6.768;2022-07-22T10:22:00;32.10;;;12.20;;
4971;SDS011;2501;51.214;6.768;2022-07-22T10:24:31;39.10;;;11.35;;
4971;SDS011;2501;51.214;6.768;2022-07-22T10:27:00;24.15;;;11.82;;
4971;SDS011;2501;51.214;6.768;2022-07-22T10:29:29;27.80;;;12.38;;
4971;SDS011;2501;51.214;6.768;2022-07-22T10:32:21;29.98;;;12.40;;
4971;SDS011;2501;51.214;6.768;2022-07-22T10:37:49;22.13;;;11.97;;
4971;SDS011;2501;51.214;6.768;2022-07-22T10:40:23;26.10;;;12.52;;
4971;SDS011;2501;51.214;6.768;2022-07-22T10:43:03;24.58;;;13.20;;
4971;SDS011;2501;51.214;6.768;2022-07-22T10:45:33;25.05;;;13.23;;
4971;SDS011;2501;51.214;6.768;2022-07-22T10:48:03;32.00;;;14.10;;
4971;SDS011;2501;51.214;6.768;2022-07-22T10:50:41;25.23;;;12.70;;
4971;SDS011;2501;51.214;6.768;2022-07-22T10:53:13;27.73;;;12.80;;
4971;SDS011;2501;51.214;6.768;2022-07-22T10:56:02;31.85;;;14.52;;
4971;SDS011;2501;51.214;6.768;2022-07-22T10:58:45;26.95;;;14.52;;
4971;SDS011;2501;51.214;6.768;2022-07-22T11:01:17;30.08;;;14.40;;
4971;SDS011;2501;51.214;6.768;2022-07-22T11:03:47;27.83;;;13.60;;
4971;SDS011;2501;51.214;6.768;2022-07-22T11:06:21;25.70;;;13.55;;
4971;SDS011;2501;51.214;6.768;2022-07-22T11:08:54;26.42;;;14.52;;
4971;SDS011;2501;51.214;6.768;2022-07-22T11:11:33;26.92;;;14.32;;
4971;SDS011;2501;51.214;6.768;2022-07-22T11:14:10;27.80;;;14.10;;
4971;SDS011;2501;51.214;6.768;2022-07-22T11:16:44;29.27;;;14.70;;
4971;SDS011;2501;51.214;6.768;2022-07-22T11:19:13;28.98;;;14.65;;
4971;SDS011;2501;51.214;6.768;2022-07-22T11:21:49;24.55;;;14.13;;
4971;SDS011;2501;51.214;6.768;2022-07-22T11:24:19;25.27;;;13.77;;
4971;SDS011;2501;51.214;6.768;2022-07-22T11:26:51;25.93;;;13.60;;
4971;SDS011;2501;51.214;6.768;2022-07-22T11:29:25;24.07;;;13.97;;
4971;SDS011;2501;51.214;6.768;2022-07-22T11:31:56;29.25;;;12.82;;
4971;SDS011;2501;51.214;6.768;2022-07-22T11:34:25;22.30;;;13.20;;
4971;SDS011;2501;51.214;6.768;2022-07-22T11:36:55;42.38;;;14.52;;
4971;SDS011;2501;51.214;6.768;2022-07-22T11:39:25;34.20;;;12.75;;
4971;SDS011;2501;51.214;6.768;2022-07-22T11:41:57;90.72;;;19.27;;
4971;SDS011;2501;51.214;6.768;2022-07-22T11:44:28;18.65;;;10.35;;
4971;SDS011;2501;51.214;6.768;2022-07-22T11:47:00;62.83;;;15.55;;
4971;SDS011;2501;51.214;6.768;2022-07-22T11:49:29;16.93;;;10.43;;
4971;SDS011;2501;51.214;6.768;2022-07-22T11:52:00;73.38;;;16.70;;
4971;SDS011;2501;51.214;6.768;2022-07-22T11:54:29;73.30;;;18.00;;
4971;SDS011;2501;51.214;6.768;2022-07-22T11:57:00;24.20;;;11.70;;
4971;SDS011;2501;51.214;6.768;2022-07-22T11:59:30;26.17;;;12.33;;
4971;SDS011;2501;51.214;6.768;2022-07-22T12:02:00;38.83;;;13.82;;
4971;SDS011;2501;51.214;6.768;2022-07-22T12:04:30;42.65;;;15.13;;
4971;SDS011;2501;51.214;6.768;2022-07-22T12:07:00;56.67;;;17.45;;
4971;SDS011;2501;51.214;6.768;2022-07-22T12:09:30;25.98;;;13.35;;
4971;SDS011;2501;51.214;6.768;2022-07-22T12:12:04;42.97;;;14.40;;
4971;SDS011;2501;51.214;6.768;2022-07-22T12:14:34;48.33;;;15.18;;
4971;SDS011;2501;51.214;6.768;2022-07-22T12:17:04;180.93;;;28.80;;
4971;SDS011;2501;51.214;6.768;2022-07-22T12:19:35;180.57;;;27.47;;
4971;SDS011;2501;51.214;6.768;2022-07-22T12:22:05;122.57;;;21.58;;
4971;SDS011;2501;51.214;6.768;2022-07-22T12:24:35;105.00;;;20.50;;
4971;SDS011;2501;51.214;6.768;2022-07-22T12:27:08;39.30;;;13.65;;
4971;SDS011;2501;51.214;6.768;2022-07-22T12:29:41;48.05;;;13.23;;
4971;SDS011;2501;51.214;6.768;2022-07-22T12:32:14;56.65;;;14.02;;
4971;SDS011;2501;51.214;6.768;2022-07-22T12:34:44;54.15;;;11.48;;
4971;SDS011;2501;51.214;6.768;2022-07-22T12:37:15;39.42;;;11.68;;
4971;SDS011;2501;51.214;6.768;2022-07-22T12:39:57;13.82;;;9.52;;
4971;SDS011;2501;51.214;6.768;2022-07-22T12:42:31;16.27;;;10.23;;
4971;SDS011;2501;51.214;6.768;2022-07-22T12:45:03;19.60;;;9.05;;
4971;SDS011;2501;51.214;6.768;2022-07-22T12:47:41;28.55;;;10.75;;
4971;SDS011;2501;51.214;6.768;2022-07-22T12:50:15;20.87;;;10.67;;
4971;SDS011;2501;51.214;6.768;2022-07-22T12:52:49;21.27;;;10.93;;
4971;SDS011;2501;51.214;6.768;2022-07-22T12:55:18;15.00;;;10.20;;
4971;SDS011;2501;51.214;6.768;2022-07-22T12:57:50;18.23;;;10.90;;
4971;SDS011;2501;51.214;6.768;2022-07-22T13:00:19;20.38;;;11.40;;
4971;SDS011;2501;51.214;6.768;2022-07-22T13:02:48;20.35;;;11.32;;
4971;SDS011;2501;51.214;6.768;2022-07-22T13:05:17;16.00;;;10.07;;
4971;SDS011;2501;51.214;6.768;2022-07-22T13:07:46;16.70;;;9.10;;
4971;SDS011;2501;51.214;6.768;2022-07-22T13:10:15;15.82;;;8.70;;
4971;SDS011;2501;51.214;6.768;2022-07-22T13:12:44;15.07;;;9.10;;
4971;SDS011;2501;51.214;6.768;2022-07-22T13:15:16;16.23;;;8.55;;
4971;SDS011;2501;51.214;6.768;2022-07-22T13:17:45;12.63;;;8.85;;
4971;SDS011;2501;51.214;6.768;2022-07-22T13:20:15;16.60;;;9.02;;
4971;SDS011;2501;51.214;6.768;2022-07-22T13:22:46;12.65;;;7.90;;
4971;SDS011;2501;51.214;6.768;2022-07-22T13:25:14;12.82;;;8.30;;
4971;SDS011;2501;51.214;6.768;2022-07-22T13:27:43;14.70;;;8.25;;
4971;SDS011;2501;51.214;6.768;2022-07-22T13:30:12;12.48;;;8.45;;
4971;SDS011;2501;51.214;6.768;2022-07-22T13:32:43;14.25;;;9.00;;
4971;SDS011;2501;51.214;6.768;2022-07-22T13:35:12;16.58;;;9.25;;
4971;SDS011;2501;51.214;6.768;2022-07-22T13:37:40;18.43;;;8.77;;
4971;SDS011;2501;51.214;6.768;2022-07-22T13:40:09;12.52;;;9.25;;
4971;SDS011;2501;51.214;6.768;2022-07-22T13:42:38;18.10;;;9.98;;
4971;SDS011;2501;51.214;6.768;2022-07-22T13:45:07;10.52;;;8.50;;
4971;SDS011;2501;51.214;6.768;2022-07-22T13:47:39;13.60;;;8.55;;
4971;SDS011;2501;51.214;6.768;2022-07-22T13:50:11;18.77;;;8.30;;
4971;SDS011;2501;51.214;6.768;2022-07-22T13:52:39;14.10;;;8.37;;
4971;SDS011;2501;51.214;6.768;2022-07-22T13:55:11;13.13;;;8.98;;
4971;SDS011;2501;51.214;6.768;2022-07-22T13:57:40;15.40;;;9.18;;
4971;SDS011;2501;51.214;6.768;2022-07-22T14:00:09;14.87;;;9.80;;
4971;SDS011;2501;51.214;6.768;2022-07-22T14:02:38;18.65;;;11.50;;
4971;SDS011;2501;51.214;6.768;2022-07-22T14:05:07;13.25;;;9.35;;
4971;SDS011;2501;51.214;6.768;2022-07-22T14:07:38;27.23;;;9.80;;
4971;SDS011;2501;51.214;6.768;2022-07-22T14:10:07;15.50;;;10.13;;
4971;SDS011;2501;51.214;6.768;2022-07-22T14:12:37;20.45;;;10.50;;
4971;SDS011;2501;51.214;6.768;2022-07-22T14:15:06;21.02;;;12.55;;
4971;SDS011;2501;51.214;6.768;2022-07-22T14:17:40;18.00;;;13.40;;
4971;SDS011;2501;51.214;6.768;2022-07-22T14:20:09;18.60;;;11.38;;
4971;SDS011;2501;51.214;6.768;2022-07-22T14:22:41;17.02;;;11.93;;
4971;SDS011;2501;51.214;6.768;2022-07-22T14:25:10;16.73;;;12.50;;
4971;SDS011;2501;51.214;6.768;2022-07-22T14:27:38;18.80;;;12.50;;
4971;SDS011;2501;51.214;6.768;2022-07-22T14:30:07;23.52;;;13.68;;
4971;SDS011;2501;51.214;6.768;2022-07-22T14:32:36;20.15;;;13.57;;
4971;SDS011;2501;51.214;6.768;2022-07-22T14:35:05;20.80;;;13.90;;
4971;SDS011;2501;51.214;6.768;2022-07-22T14:37:34;25.33;;;12.95;;
4971;SDS011;2501;51.214;6.768;2022-07-22T14:40:06;18.38;;;12.93;;
4971;SDS011;2501;51.214;6.768;2022-07-22T14:42:36;16.33;;;11.13;;
4971;SDS011;2501;51.214;6.768;2022-07-22T14:45:05;16.73;;;10.95;;
4971;SDS011;2501;51.214;6.768;2022-07-22T14:47:35;18.40;;;11.30;;
4971;SDS011;2501;51.214;6.768;2022-07-22T14:50:04;16.73;;;12.20;;
4971;SDS011;2501;51.214;6.768;2022-07-22T14:52:34;15.88;;;11.02;;
4971;SDS011;2501;51.214;6.768;2022-07-22T14:55:06;13.88;;;10.20;;
4971;SDS011;2501;51.214;6.768;2022-07-22T14:57:35;16.27;;;10.90;;
4971;SDS011;2501;51.214;6.768;2022-07-22T15:00:05;12.60;;;8.88;;
4971;SDS011;2501;51.214;6.768;2022-07-22T15:02:34;12.73;;;8.50;;
4971;SDS011;2501;51.214;6.768;2022-07-22T15:05:03;14.40;;;10.27;;
4971;SDS011;2501;51.214;6.768;2022-07-22T15:07:32;18.13;;;10.15;;
4971;SDS011;2501;51.214;6.768;2022-07-22T15:10:01;10.30;;;9.00;;
4971;SDS011;2501;51.214;6.768;2022-07-22T15:12:32;12.20;;;8.37;;
4971;SDS011;2501;51.214;6.768;2022-07-22T15:15:01;11.18;;;9.02;;
4971;SDS011;2501;51.214;6.768;2022-07-22T15:17:33;12.33;;;9.20;;
4971;SDS011;2501;51.214;6.768;2022-07-22T15:20:04;18.95;;;9.90;;
4971;SDS011;2501;51.214;6.768;2022-07-22T15:22:34;12.70;;;8.90;;